Garrett, PA

11:39 AM EST on January 30, 2015 (GMT -0500)
Rockwood | Change Station
CLOSE
Current Station
Personal Weather Station
Location: Rockwood, PA
Elevation: 2000 ft
Nearby Weather Stations
Active Advisory: Wind Chill Advisory

Elev 2000 ft 39.92 °N, 79.16 °W | Updated 4 minutes ago

Overcast
Overcast
17.7 °F
Feels Like 12 °F
N
4.0
Wind Variable Wind from West
Gusts 18.0 mph

Today
High -- | Low -- °F
--% Chance of Precip.
Yesterday
High -- | Low -- °F
Precip. -- in
7:26 AM 5:33 PM
Waxing Gibbous, 83% visible
Pressure 30.16 in
Visibility 10.0 miles
Clouds Scattered Clouds 1600 ft
Scattered Clouds 2300 ft
Scattered Clouds 2800 ft
Windchill 12 °F
Dew Point 11 °F
Humidity 75%
Rainfall 13.91 in
Snow Depth Not available.
UV 3 out of 12
Pollen .10 out of 12
Air Quality Not available.
Flu Activity Not available.
METAR KCBE 301630Z AUTO 34008G17KT 301V011 10SM SCT016 SCT023 SCT028 00/M07 A3016 RMK AO1

More Conditions Fewer Conditions

Pressure 30.16 in
Visibility 10.0 miles
Clouds Scattered Clouds 1600 ft
Scattered Clouds 2300 ft
Scattered Clouds 2800 ft
Windchill 12 °F
Dew Point 11 °F
Humidity 75%
Rainfall 13.91 in
Snow Depth Not available.
UV 3 out of 12
Pollen .10 out of 12
Air Quality Not available.
Flu Activity Not available.
METAR KCBE 301630Z AUTO 34008G17KT 301V011 10SM SCT016 SCT023 SCT028 00/M07 A3016 RMK AO1

More Conditions Fewer Conditions

10-Day Weather Forecast

Almanac

Astronomy

Jan. 30, 2015 Rise Set
Actual Time
Civil Twilight
Nautical Twilight
Astronomical Twilight
Moon
Length of Visible Light
Length of Day
Tomorrow will be .
, % of the Moon is Illuminated

Today's Extremes

State Highs State Lows

Community

WunderPhotos

Upload Photos

1,791,810 photos uploaded!

WunderBlogs® & News

Nearby

Air Quality

  Air Quality AQ Index Pollutant
Not available.

Snow Depth

Station Depth Elevation

Earthquake Activity

City Distance Mag. Time & Date
Minimum magnitude displayed is 2.5.

Coastal Water Temperatures

Place Temperature

Nearby Weather Stations